Time;durP1;ratioP1;P1;durP2;ratioP2;P2;SDS_P1;SDS_P2;PMS_P1;PMS_P2;Temp;Humidity;BMP_temperature;BMP_pressure;BME280_temperature;BME280_humidity;BME280_pressure;Samples;Min_cycle;Max_cycle;Signal;HPM_P1;HPM_P2
2022/05/21 00:00:04;;;;;;;;;1.00;1.00;;;;;23.80;46.72;102381.09;5043712;28;52786;-91
2022/05/21 00:02:29;;;;;;;;;1.00;1.00;;;;;23.52;46.07;102329.63;5019551;28;45566;-91
2022/05/21 00:04:55;;;;;;;;;1.00;1.00;;;;;24.04;46.62;102404.03;5017367;28;45651;-91
2022/05/21 00:07:20;;;;;;;;;1.00;1.00;;;;;23.64;46.46;102346.53;5015557;28;47071;-91
2022/05/21 00:09:46;;;;;;;;;0.25;0.25;;;;;23.49;46.57;102320.75;5040517;28;45474;-91
2022/05/21 00:12:11;;;;;;;;;0.75;0.75;;;;;23.33;46.25;102296.19;5010392;28;45555;-91
2022/05/21 00:14:37;;;;;;;;;1.75;0.75;;;;;23.26;46.74;102285.97;5030768;28;45587;-91
2022/05/21 00:17:02;;;;;;;;;0.00;0.00;;;;;23.24;46.64;102270.88;5031603;28;47607;-91
2022/05/21 00:19:28;;;;;;;;;0.50;0.50;;;;;23.88;46.63;102374.91;5036497;28;45586;-91
2022/05/21 00:21:53;;;;;;;;;1.00;1.00;;;;;23.38;46.60;102305.56;5049460;28;45489;-91
2022/05/21 00:24:19;;;;;;;;;2.00;1.00;;;;;23.21;46.75;102276.63;5030336;28;45456;-90
2022/05/21 00:26:44;;;;;;;;;2.00;1.00;;;;;23.42;46.56;102316.97;5065751;28;46958;-90
2022/05/21 00:29:10;;;;;;;;;3.50;1.00;;;;;23.79;46.95;102371.25;5017089;28;45324;-91
2022/05/21 00:31:36;;;;;;;;;1.00;1.00;;;;;23.55;46.83;102334.75;5034258;28;45376;-91
2022/05/21 00:34:01;;;;;;;;;2.00;1.00;;;;;22.96;46.61;102247.38;5050068;28;45484;-91
2022/05/21 00:36:27;;;;;;;;;1.50;1.00;;;;;23.01;46.94;102247.78;5020480;28;46991;-91
2022/05/21 00:38:52;;;;;;;;;0.75;0.75;;;;;23.05;46.81;102273.56;5042336;28;45625;-90
2022/05/21 00:41:18;;;;;;;;;1.00;1.00;;;;;23.55;47.00;102340.16;5031994;28;45353;-91
2022/05/21 00:43:53;;;;;;;;;0.25;0.00;;;;;23.76;47.32;102366.13;5054116;28;45261;-91
2022/05/21 00:46:23;;;;;;;;;1.00;1.00;;;;;23.05;47.04;102262.72;5067390;27;48840;-91
2022/05/21 00:49:20;;;;;;;;;1.60;1.00;;;;;23.20;47.32;102275.75;5011308;28;45530;-90
2022/05/21 00:52:07;;;;;;;;;1.00;0.20;;;;;23.70;47.29;102359.47;5031481;28;46915;-90
2022/05/21 00:54:46;;;;;;;;;1.60;1.00;;;;;23.12;47.51;102273.78;5035755;28;45675;-91
2022/05/21 00:57:24;;;;;;;;;2.00;2.00;;;;;22.94;47.43;102255.66;5016686;28;47304;-91
2022/05/21 00:59:52;;;;;;;;;1.00;1.00;;;;;23.02;47.47;102263.03;5035772;28;45340;-91
2022/05/21 01:02:24;;;;;;;;;3.20;3.20;;;;;22.89;47.57;102246.28;5056021;27;45562;-90
2022/05/21 01:04:50;;;;;;;;;4.20;4.20;;;;;23.39;47.97;102330.81;5044549;28;45430;-92
2022/05/21 01:07:15;;;;;;;;;13.00;12.00;;;;;23.32;47.82;102316.19;5049241;28;47208;-91
2022/05/21 01:09:43;;;;;;;;;23.75;19.25;;;;;22.99;48.03;102257.91;5015693;28;45494;-91
2022/05/21 01:12:09;;;;;;;;;27.00;26.20;;;;;23.38;47.74;102320.97;5035336;28;45587;-91
2022/05/21 01:14:36;;;;;;;;;27.75;25.75;;;;;23.17;47.71;102281.47;5024240;28;45507;-91
2022/05/21 01:17:01;;;;;;;;;25.80;23.40;;;;;23.57;48.27;102352.56;5040190;28;47200;-91
2022/05/21 01:19:27;;;;;;;;;26.25;25.25;;;;;22.75;48.21;102229.50;5038515;28;45538;-91
2022/05/21 01:21:53;;;;;;;;;32.00;30.60;;;;;23.01;48.04;102269.44;5039494;28;45370;-90
2022/05/21 01:24:18;;;;;;;;;29.50;26.50;;;;;23.33;48.05;102317.84;5036076;28;46837;-91
2022/05/21 01:26:44;;;;;;;;;28.25;26.00;;;;;23.03;48.50;102275.56;5019429;28;45751;-91
2022/05/21 01:29:17;;;;;;;;;30.75;27.25;;;;;23.37;48.14;102327.41;5018974;28;45562;-91
2022/05/21 01:31:48;;;;;;;;;30.20;23.40;;;;;22.73;48.10;102221.56;5016751;28;45528;-91
2022/05/21 01:34:13;;;;;;;;;23.80;23.20;;;;;22.92;48.20;102246.00;5037776;28;45464;-90
2022/05/21 01:36:39;;;;;;;;;16.50;15.50;;;;;23.18;48.28;102284.03;5056300;28;47117;-91
2022/05/21 01:39:04;;;;;;;;;15.25;13.50;;;;;22.74;48.44;102217.00;5051417;28;45565;-91
2022/05/21 01:41:29;;;;;;;;;14.25;12.00;;;;;23.46;48.39;102329.22;5038247;28;45965;-91
2022/05/21 01:46:39;;;;;;;;;11.20;10.60;;;;;23.00;48.51;102248.81;5067894;28;45841;-91
2022/05/21 01:49:04;;;;;;;;;11.00;10.75;;;;;22.87;48.38;102232.88;5052340;28;45536;-91
2022/05/21 01:51:30;;;;;;;;;10.50;8.75;;;;;23.08;48.30;102260.72;5056157;28;45341;-90
2022/05/21 01:53:55;;;;;;;;;7.00;6.75;;;;;23.29;48.69;102296.50;5020135;28;45748;-91
2022/05/21 01:56:21;;;;;;;;;9.75;7.00;;;;;22.92;48.55;102251.41;5037370;28;46954;-91
2022/05/21 01:58:46;;;;;;;;;7.25;6.25;;;;;23.26;48.94;102291.38;5055652;28;45577;-90
2022/05/21 02:01:12;;;;;;;;;6.75;4.00;;;;;22.69;48.89;102203.06;5027042;28;45517;-91
2022/05/21 02:03:37;;;;;;;;;3.00;3.00;;;;;22.67;48.94;102213.16;5055647;28;45528;-91
2022/05/21 02:06:03;;;;;;;;;4.00;4.00;;;;;22.79;49.00;102235.50;5062050;28;45225;-91
2022/05/21 02:08:28;;;;;;;;;5.50;4.00;;;;;23.34;49.12;102322.28;5060353;28;44907;-90
2022/05/21 02:10:54;;;;;;;;;3.00;2.75;;;;;23.09;49.29;102271.41;5054894;28;44877;-91
2022/05/21 02:13:21;;;;;;;;;3.00;2.00;;;;;22.70;49.05;102205.59;5039887;28;45664;-90
2022/05/21 02:15:47;;;;;;;;;3.00;3.00;;;;;23.31;49.11;102298.22;5028301;28;47129;-91
2022/05/21 02:18:13;;;;;;;;;2.00;2.00;;;;;23.19;48.74;102279.47;5058583;27;45461;-91
2022/05/21 02:20:39;;;;;;;;;2.50;2.25;;;;;23.29;49.09;102298.38;5019588;28;45260;-91
2022/05/21 02:23:04;;;;;;;;;2.25;1.25;;;;;22.89;48.74;102227.34;5058791;28;45332;-89
2022/05/21 02:25:29;;;;;;;;;3.75;3.00;;;;;23.01;48.90;102244.22;5057129;28;45905;-89
2022/05/21 02:27:55;;;;;;;;;2.25;2.00;;;;;22.90;49.28;102238.00;5064333;28;44813;-90
2022/05/21 02:30:20;;;;;;;;;3.00;2.25;;;;;22.91;49.12;102234.31;5082946;28;45046;-90
2022/05/21 02:32:46;;;;;;;;;2.25;2.00;;;;;22.68;49.05;102193.22;5042473;28;45465;-90
2022/05/21 02:35:12;;;;;;;;;1.75;1.50;;;;;22.89;49.21;102224.66;5038565;28;47456;-90
2022/05/21 02:40:21;;;;;;;;;2.40;2.00;;;;;22.63;49.08;102186.41;5064427;27;45307;-90
2022/05/21 02:42:47;;;;;;;;;3.00;2.75;;;;;23.20;49.26;102281.19;5025429;28;45568;-90
2022/05/21 02:45:21;;;;;;;;;5.60;2.40;;;;;22.46;49.25;102154.75;5052701;27;46727;-90
2022/05/21 02:47:46;;;;;;;;;3.20;2.00;;;;;22.60;49.45;102184.03;5049640;28;45613;-90
2022/05/21 02:50:14;;;;;;;;;2.75;2.75;;;;;23.18;49.22;102269.63;5041492;28;45355;-90
2022/05/21 02:52:39;;;;;;;;;2.00;2.00;;;;;23.16;49.29;102266.22;5049639;28;46031;-90
2022/05/21 02:55:05;;;;;;;;;2.00;2.00;;;;;22.60;49.41;102178.59;5012760;28;48049;-90
2022/05/21 02:57:31;;;;;;;;;1.60;1.60;;;;;22.40;49.57;102151.63;5031908;28;45545;-90
2022/05/21 03:00:00;;;;;;;;;1.20;1.20;;;;;22.46;49.00;102157.44;5053825;28;45577;-90
2022/05/21 03:02:25;;;;;;;;;2.00;2.00;;;;;22.70;49.80;102196.63;5051040;28;51352;-89
2022/05/21 03:04:51;;;;;;;;;2.00;2.00;;;;;22.49;49.42;102159.88;5028089;28;47069;-90
2022/05/21 03:07:16;;;;;;;;;2.00;2.00;;;;;22.38;49.17;102137.41;5052116;28;45601;-90
2022/05/21 03:12:25;;;;;;;;;1.00;1.00;;;;;22.87;49.45;102221.22;5035539;28;45448;-90
2022/05/21 03:14:51;;;;;;;;;1.75;1.75;;;;;22.81;49.47;102210.00;5033020;28;45533;-90
2022/05/21 03:17:16;;;;;;;;;2.00;1.00;;;;;22.87;49.42;102210.38;5035193;28;45370;-90
2022/05/21 03:19:42;;;;;;;;;2.00;2.00;;;;;22.98;49.59;102233.72;5031548;28;45742;-90
2022/05/21 03:22:08;;;;;;;;;2.25;1.75;;;;;22.56;49.87;102160.09;5047016;28;45399;-89
2022/05/21 03:24:34;;;;;;;;;3.00;1.00;;;;;22.58;49.59;102168.91;5013892;28;47256;-90
2022/05/21 03:26:59;;;;;;;;;3.00;3.00;;;;;22.60;49.91;102167.78;5015852;28;45889;-89
2022/05/21 03:29:25;;;;;;;;;3.50;1.50;;;;;22.72;49.38;102186.53;5035978;28;45300;-90
2022/05/21 03:31:50;;;;;;;;;1.75;1.00;;;;;22.60;49.88;102178.59;5036653;28;45433;-90
2022/05/21 03:34:16;;;;;;;;;1.50;1.50;;;;;22.89;49.98;102221.94;5018553;28;46155;-89
2022/05/21 03:36:42;;;;;;;;;4.25;2.00;;;;;22.17;49.93;102092.50;5049326;28;45709;-90
2022/05/21 03:39:07;;;;;;;;;1.00;1.00;;;;;22.52;49.87;102151.44;5050251;28;45606;-90
2022/05/21 03:41:34;;;;;;;;;2.00;2.00;;;;;22.37;50.04;102130.31;5015877;28;45566;-90
2022/05/21 03:44:00;;;;;;;;;2.00;2.00;;;;;22.60;49.85;102167.78;5052970;27;48250;-90
2022/05/21 03:46:26;;;;;;;;;1.00;1.00;;;;;22.40;50.00;102121.06;5050077;27;45470;-90
2022/05/21 03:48:51;;;;;;;;;2.00;2.00;;;;;22.53;50.11;102139.63;5016375;28;45492;-90
2022/05/21 03:51:17;;;;;;;;;1.75;1.25;;;;;22.15;49.98;102078.31;5048037;28;46178;-90
2022/05/21 03:53:42;;;;;;;;;2.00;2.00;;;;;22.35;50.16;102109.81;5017883;28;47816;-90
2022/05/21 03:56:08;;;;;;;;;2.00;2.00;;;;;22.63;50.00;102145.81;5037108;28;45404;-90
2022/05/21 03:58:33;;;;;;;;;1.25;1.00;;;;;22.34;49.86;102095.47;5052145;28;45528;-90
2022/05/21 04:00:59;;;;;;;;;1.00;1.00;;;;;22.02;49.92;102051.63;5033866;28;45537;-90
2022/05/21 04:03:25;;;;;;;;;1.00;1.00;;;;;22.11;49.88;102065.25;5031789;28;46588;-90
2022/05/21 04:05:53;;;;;;;;;0.80;0.80;;;;;22.07;49.75;102059.28;5015332;28;45732;-90
2022/05/21 04:08:19;;;;;;;;;2.20;1.60;;;;;22.36;49.89;102108.81;5019303;28;45322;-90
2022/05/21 04:10:44;;;;;;;;;1.00;1.00;;;;;22.83;50.03;102180.09;5052598;28;45550;-90
2022/05/21 04:13:10;;;;;;;;;1.00;1.00;;;;;22.07;49.50;102080.91;5031651;28;46798;-90
2022/05/21 04:15:35;;;;;;;;;1.25;1.25;;;;;22.07;49.75;102064.69;5039877;28;45737;-90
2022/05/21 04:18:01;;;;;;;;;0.00;0.00;;;;;22.65;49.51;102153.81;5045640;28;45296;-90
2022/05/21 04:20:26;;;;;;;;;1.00;1.00;;;;;22.04;49.64;102071.25;5018199;28;45664;-90
2022/05/21 04:22:52;;;;;;;;;5.00;2.00;;;;;22.52;49.74;102143.31;5018185;28;46896;-90
2022/05/21 04:25:17;;;;;;;;;1.50;1.50;;;;;22.04;50.00;102054.16;5017124;28;45286;-90
2022/05/21 04:27:43;;;;;;;;;1.00;1.00;;;;;22.28;49.76;102098.75;5050236;27;45488;-90
2022/05/21 04:30:20;;;;;;;;;1.75;1.75;;;;;21.97;49.86;102056.63;5050222;28;45596;-90
2022/05/21 04:32:45;;;;;;;;;1.60;1.00;;;;;22.74;49.86;102179.16;5055753;28;48247;-90
2022/05/21 04:35:11;;;;;;;;;1.00;1.00;;;;;22.45;49.72;102126.00;5022075;28;45391;-90
2022/05/21 04:37:37;;;;;;;;;1.00;1.00;;;;;22.32;49.97;102100.16;5020007;28;45478;-90
2022/05/21 04:40:07;;;;;;;;;1.00;1.00;;;;;21.99;50.08;102046.50;5051712;27;45743;-90
2022/05/21 04:42:32;;;;;;;;;1.00;1.00;;;;;22.70;50.03;102156.06;5056295;27;47579;-90
2022/05/21 04:44:58;;;;;;;;;1.00;1.00;;;;;22.04;50.14;102048.75;5019615;28;45499;-90
2022/05/21 04:47:23;;;;;;;;;2.25;1.25;;;;;22.06;50.05;102052.16;5021232;28;46614;-89
2022/05/21 04:49:49;;;;;;;;;2.00;1.00;;;;;22.28;49.95;102087.94;5058723;28;45446;-90
2022/05/21 04:52:14;;;;;;;;;2.50;2.50;;;;;21.83;49.62;102025.50;5040181;28;45362;-90
2022/05/21 04:54:40;;;;;;;;;1.50;1.50;;;;;22.10;49.89;102067.09;5054621;28;45460;-90
2022/05/21 04:57:06;;;;;;;;;1.50;1.00;;;;;22.35;49.89;102107.97;5050696;28;45448;-91
2022/05/21 04:59:31;;;;;;;;;1.40;1.40;;;;;22.08;49.75;102061.00;5037453;28;45674;-90
2022/05/21 05:01:58;;;;;;;;;2.25;1.00;;;;;21.98;49.86;102052.91;5070444;27;47030;-90
2022/05/21 05:04:23;;;;;;;;;2.00;2.00;;;;;21.96;50.03;102050.38;5054574;27;45523;-90
2022/05/21 05:06:49;;;;;;;;;2.00;1.00;;;;;22.38;49.85;102125.72;5040950;28;45485;-90
2022/05/21 05:09:17;;;;;;;;;1.75;1.75;;;;;22.60;49.75;102151.56;5028719;28;45653;-90
2022/05/21 05:11:42;;;;;;;;;2.00;2.00;;;;;21.93;50.01;102042.56;5037437;28;45407;-90
2022/05/21 05:14:07;;;;;;;;;1.00;1.00;;;;;21.72;50.06;102024.66;5056204;28;45733;-90
2022/05/21 05:16:33;;;;;;;;;4.00;2.00;;;;;22.53;50.11;102139.63;5049712;28;46043;-90
2022/05/21 05:18:58;;;;;;;;;2.00;2.00;;;;;21.97;49.98;102049.34;5018328;28;45420;-90
2022/05/21 05:21:24;;;;;;;;;1.00;1.00;;;;;21.90;50.11;102040.16;5087373;27;45424;-90
2022/05/21 05:23:49;;;;;;;;;1.50;1.50;;;;;21.97;50.30;102060.16;5040325;28;45510;-89
2022/05/21 05:26:15;;;;;;;;;2.50;2.50;;;;;21.85;50.78;102034.31;5021061;28;45455;-89
2022/05/21 05:28:41;;;;;;;;;3.00;2.00;;;;;22.23;50.59;102095.66;5039037;28;45511;-90
2022/05/21 05:31:06;;;;;;;;;1.25;1.25;;;;;22.35;50.53;102121.47;5023628;28;46965;-90
2022/05/21 05:33:33;;;;;;;;;3.25;2.00;;;;;22.07;50.47;102081.75;5072747;28;45399;-90
2022/05/21 05:35:58;;;;;;;;;2.00;2.00;;;;;22.01;50.83;102070.66;5035450;28;45630;-89
2022/05/21 05:38:24;;;;;;;;;2.25;2.25;;;;;22.21;50.70;102097.63;5033622;28;45451;-90
2022/05/21 05:40:50;;;;;;;;;1.25;1.25;;;;;22.17;50.63;102092.50;5066392;27;46405;-90
2022/05/21 05:43:16;;;;;;;;;3.40;1.80;;;;;22.22;50.52;102102.03;5016569;28;45748;-89
2022/05/21 05:45:42;;;;;;;;;3.00;2.00;;;;;21.99;51.01;102068.13;5036881;28;45346;-89
2022/05/21 05:48:08;;;;;;;;;1.75;1.75;;;;;22.19;50.74;102095.94;5040656;28;45262;-91
2022/05/21 05:50:33;;;;;;;;;1.00;1.00;;;;;21.86;50.55;102044.09;5052172;27;47200;-88
2022/05/21 05:53:03;;;;;;;;;3.00;3.00;;;;;22.43;50.70;102139.69;5054201;28;45466;-93
2022/05/21 05:55:29;;;;;;;;;2.40;2.00;;;;;22.38;50.69;102126.59;5017713;28;45451;-87
2022/05/21 05:57:54;;;;;;;;;2.00;2.00;;;;;22.11;50.78;102082.31;5048076;28;45487;-87
2022/05/21 06:00:20;;;;;;;;;2.00;1.50;;;;;21.81;50.71;102038.28;5071233;28;48479;-87
2022/05/21 06:02:58;;;;;;;;;2.00;2.00;;;;;22.19;50.60;102106.75;5052019;27;45446;-87
2022/05/21 06:05:23;;;;;;;;;2.00;2.00;;;;;22.18;50.86;102094.22;5066478;27;45443;-87
2022/05/21 06:07:50;;;;;;;;;2.25;1.50;;;;;22.19;50.53;102098.66;5072570;27;45267;-87
2022/05/21 06:10:19;;;;;;;;;1.80;1.80;;;;;22.22;50.80;102094.78;5034648;28;48977;-87
2022/05/21 06:12:44;;;;;;;;;2.00;2.00;;;;;22.36;50.62;102100.72;5074976;27;45388;-87
2022/05/21 06:15:10;;;;;;;;;1.50;1.00;;;;;22.06;50.80;102073.78;5046188;28;45459;-87
2022/05/21 06:17:37;;;;;;;;;2.00;1.00;;;;;22.01;50.66;102059.88;5055296;28;45587;-87
2022/05/21 06:20:03;;;;;;;;;2.80;1.40;;;;;22.22;50.64;102078.56;5067109;27;47545;-87
2022/05/21 06:22:29;;;;;;;;;2.00;2.00;;;;;21.72;51.03;102002.19;5017673;28;45946;-87
2022/05/21 06:24:54;;;;;;;;;2.00;2.00;;;;;21.71;50.69;101995.97;5049684;28;45541;-87
2022/05/21 06:27:19;;;;;;;;;1.25;1.25;;;;;22.11;50.77;102055.28;5049662;28;45443;-87
2022/05/21 06:29:46;;;;;;;;;1.25;1.00;;;;;21.92;50.79;102023.78;5024289;28;45887;-87
2022/05/21 06:32:12;;;;;;;;;2.00;2.00;;;;;21.95;50.68;102043.25;5034767;28;46739;-86
2022/05/21 06:34:37;;;;;;;;;2.50;2.00;;;;;22.49;50.72;102122.00;5007135;28;45570;-86
2022/05/21 06:37:04;;;;;;;;;2.00;2.00;;;;;21.92;51.05;102031.88;5021834;28;45652;-87
2022/05/21 06:39:33;;;;;;;;;1.80;1.80;;;;;21.80;51.04;102009.59;5009607;28;47139;-87
2022/05/21 06:41:59;;;;;;;;;1.80;1.80;;;;;22.25;51.02;102074.72;5048682;28;45402;-90
2022/05/21 06:44:24;;;;;;;;;1.75;1.75;;;;;21.80;50.60;102013.13;5026290;28;45246;-88
2022/05/21 06:46:50;;;;;;;;;1.50;1.25;;;;;21.83;51.09;102003.91;5016223;28;45544;-88
2022/05/21 06:49:15;;;;;;;;;2.50;2.50;;;;;21.77;50.99;101999.94;5024833;28;45952;-89
2022/05/21 06:51:41;;;;;;;;;2.75;2.00;;;;;21.66;50.77;101979.34;5005458;28;46065;-89
2022/05/21 06:54:06;;;;;;;;;2.00;2.00;;;;;22.33;50.92;102079.38;5036084;28;55666;-89
2022/05/21 06:56:31;;;;;;;;;1.50;1.50;;;;;21.88;50.79;102008.84;5005481;28;47607;-90
2022/05/21 06:58:57;;;;;;;;;3.00;3.00;;;;;22.38;51.01;102088.75;5048592;28;50967;-89
2022/05/21 07:01:22;;;;;;;;;2.50;2.50;;;;;21.96;50.74;102020.66;5006170;28;46074;-88
2022/05/21 07:03:48;;;;;;;;;3.00;3.00;;;;;21.72;50.90;101959.00;5041956;28;46223;-88
2022/05/21 07:08:57;;;;;;;;;2.00;1.00;;;;;22.39;51.19;102068.81;5015504;28;46182;-89
2022/05/21 07:11:23;;;;;;;;;1.75;1.00;;;;;22.61;51.19;102104.56;5003626;28;48474;-88
2022/05/21 07:13:48;;;;;;;;;3.00;2.25;;;;;21.92;51.39;101991.34;5020752;28;45629;-89
2022/05/21 07:16:14;;;;;;;;;2.75;2.00;;;;;22.25;50.97;102028.78;5036752;28;46160;-88
2022/05/21 07:18:39;;;;;;;;;2.50;2.50;;;;;22.02;50.88;101992.19;5035218;28;46011;-87
2022/05/21 07:21:05;;;;;;;;;3.50;3.00;;;;;22.51;51.37;102065.91;5067944;27;46886;-87
2022/05/21 07:23:30;;;;;;;;;3.00;3.00;;;;;22.29;51.49;102027.47;5036374;28;45570;-88
2022/05/21 07:25:55;;;;;;;;;2.00;2.00;;;;;22.39;51.60;102047.19;5019289;28;45805;-86
2022/05/21 07:28:21;;;;;;;;;3.75;2.75;;;;;22.10;51.35;102002.25;5018213;28;47519;-88
2022/05/21 07:30:47;;;;;;;;;2.25;2.25;;;;;22.43;51.52;102041.50;5018015;28;45622;-89
2022/05/21 07:33:15;;;;;;;;;3.00;2.80;;;;;22.35;51.20;102021.47;5019647;28;45945;-88
2022/05/21 07:35:40;;;;;;;;;3.20;2.40;;;;;22.17;51.36;101989.00;5042585;28;46963;-89
2022/05/21 07:38:07;;;;;;;;;3.00;2.00;;;;;22.63;51.34;102064.69;5050664;28;46118;-88
2022/05/21 07:40:32;;;;;;;;;1.60;1.60;;;;;22.54;51.44;102045.84;5046058;28;45454;-88
2022/05/21 07:42:58;;;;;;;;;2.25;2.25;;;;;22.82;51.55;102089.97;5007487;28;47892;-89
2022/05/21 07:45:23;;;;;;;;;2.75;2.75;;;;;22.85;51.35;102088.81;5003989;28;45628;-88
2022/05/21 07:47:49;;;;;;;;;3.00;1.75;;;;;22.05;51.71;101959.47;5041491;28;45969;-87
2022/05/21 07:50:15;;;;;;;;;2.50;2.50;;;;;22.78;51.25;102063.34;5053006;28;45539;-88
2022/05/21 07:52:40;;;;;;;;;3.75;2.50;;;;;22.88;51.58;102076.84;5035140;28;45435;-87
2022/05/21 07:55:06;;;;;;;;;2.00;2.00;;;;;22.13;51.58;101956.00;5046458;28;45430;-87
2022/05/21 07:57:32;;;;;;;;;2.80;2.40;;;;;22.35;52.02;101985.47;5022156;28;47426;-88
2022/05/21 07:59:58;;;;;;;;;3.00;3.00;;;;;22.62;51.55;102030.56;5033031;28;45517;-88
2022/05/21 08:02:23;;;;;;;;;1.60;1.60;;;;;22.40;51.34;101984.00;5018720;28;45304;-86
2022/05/21 08:04:49;;;;;;;;;4.50;3.25;;;;;22.79;51.77;102040.72;5037275;28;45328;-88
2022/05/21 08:07:14;;;;;;;;;2.50;2.00;;;;;22.54;51.55;102000.72;5048999;28;46853;-87
2022/05/21 08:09:40;;;;;;;;;2.25;2.00;;;;;22.49;51.90;101973.31;5032696;28;45344;-87
2022/05/21 08:12:07;;;;;;;;;2.00;1.25;;;;;23.02;51.76;102056.50;5033206;28;45321;-87
2022/05/21 08:14:32;;;;;;;;;2.00;2.00;;;;;23.01;52.33;102050.25;5048827;28;45426;-87
2022/05/21 08:16:58;;;;;;;;;2.00;2.00;;;;;22.99;51.55;102027.91;5048228;28;47501;-87
2022/05/21 08:19:25;;;;;;;;;3.00;3.00;;;;;22.48;51.80;101955.38;5029438;28;48790;-88
2022/05/21 08:21:50;;;;;;;;;1.25;1.25;;;;;22.93;52.22;102017.69;5015489;28;45628;-87
2022/05/21 08:27:01;;;;;;;;;5.00;3.60;;;;;23.02;51.94;102033.00;5048458;28;45554;-87
2022/05/21 08:29:29;;;;;;;;;3.80;3.80;;;;;22.62;51.91;101954.84;5059365;28;45450;-87
2022/05/21 08:31:54;;;;;;;;;3.40;3.40;;;;;23.26;51.63;102045.03;5068080;28;45793;-87
2022/05/21 08:34:21;;;;;;;;;2.50;2.50;;;;;23.32;51.34;102045.44;5067592;27;45557;-87
2022/05/21 08:36:47;;;;;;;;;2.00;2.00;;;;;23.20;52.29;102021.31;5048310;28;46468;-87
2022/05/21 08:39:13;;;;;;;;;2.40;2.40;;;;;23.27;52.84;102016.13;5035116;28;45386;-87
2022/05/21 08:41:44;;;;;;;;;4.50;3.25;;;;;22.70;52.42;101927.00;5061443;28;45510;-88
2022/05/21 08:44:13;;;;;;;;;2.40;2.20;;;;;23.42;51.42;102038.06;5061443;28;45320;-87
2022/05/21 08:46:50;;;;;;;;;6.20;3.20;;;;;23.46;52.37;102025.94;5044126;28;47380;-88
2022/05/21 08:49:29;;;;;;;;;2.80;2.80;;;;;23.49;52.20;102025.59;5054374;28;45446;-86
2022/05/21 08:51:58;;;;;;;;;3.60;3.00;;;;;23.31;52.25;102001.28;5056070;28;45408;-88
2022/05/21 08:54:25;;;;;;;;;3.40;3.40;;;;;22.75;53.20;101913.03;5048373;28;45479;-87
2022/05/21 08:56:51;;;;;;;;;5.40;5.00;;;;;23.57;53.32;102030.25;5032313;28;45751;-87
2022/05/21 08:59:16;;;;;;;;;4.50;4.25;;;;;23.50;53.25;102008.34;5044351;28;45575;-86
2022/05/21 09:01:44;;;;;;;;;5.25;3.50;;;;;23.49;52.34;102012.03;5026200;28;45501;-86
2022/05/21 09:04:12;;;;;;;;;4.40;3.80;;;;;23.12;53.15;101950.91;5018789;28;45408;-86
2022/05/21 09:06:59;;;;;;;;;3.00;3.00;;;;;23.68;51.97;102023.72;5028824;28;47041;-87
2022/05/21 09:09:48;;;;;;;;;7.00;5.60;;;;;23.22;52.49;101943.50;5076811;27;51006;-86
2022/05/21 09:12:18;;;;;;;;;4.80;4.00;;;;;23.75;53.49;102006.84;5050079;28;45561;-86
2022/05/21 09:14:46;;;;;;;;;3.20;3.20;;;;;23.16;52.98;101906.25;5032777;28;45408;-85
2022/05/21 09:17:14;;;;;;;;;3.00;3.00;;;;;23.21;51.49;101898.50;5052657;28;45529;-85
2022/05/21 09:19:48;;;;;;;;;4.80;3.60;;;;;23.39;52.19;101924.66;5048560;28;45547;-85
2022/05/21 09:22:15;;;;;;;;;4.00;4.00;;;;;23.87;51.70;101989.28;5055246;28;45459;-85
2022/05/21 09:24:58;;;;;;;;;4.80;4.80;;;;;23.89;51.63;101987.28;5054437;28;45672;-85
2022/05/21 09:27:49;;;;;;;;;5.00;5.00;;;;;23.72;51.80;101951.13;5052374;28;46329;-85
2022/05/21 09:30:28;;;;;;;;;5.80;5.20;;;;;23.97;51.56;101982.88;5024303;28;46140;-86
2022/05/21 09:32:58;;;;;;;;;4.00;4.00;;;;;23.74;51.15;101946.38;5052795;28;46559;-85
2022/05/21 09:35:29;;;;;;;;;6.00;4.40;;;;;24.02;51.46;101969.69;5036175;28;45435;-86
2022/05/21 09:37:54;;;;;;;;;4.00;4.00;;;;;23.76;50.72;101927.25;5054627;28;46183;-85
2022/05/21 09:40:30;;;;;;;;;5.75;5.75;;;;;23.79;50.90;101921.50;5042125;28;45544;-86
2022/05/21 09:45:39;;;;;;;;;4.20;3.00;;;;;24.00;51.66;101971.72;5057522;28;45508;-85
2022/05/21 09:48:05;;;;;;;;;4.50;4.50;;;;;24.16;51.07;101985.34;5035751;28;45634;-85
2022/05/21 09:50:48;;;;;;;;;7.00;5.50;;;;;24.10;51.70;101963.44;5054373;28;45785;-85
2022/05/21 09:53:37;;;;;;;;;6.60;5.00;;;;;24.06;51.78;101960.22;5051971;28;45429;-85
2022/05/21 09:56:05;;;;;;;;;6.00;6.00;;;;;24.24;51.44;101970.13;5025194;28;45452;-84
2022/05/21 09:58:33;;;;;;;;;3.60;3.60;;;;;23.92;51.52;101927.31;5052423;28;45545;-84
2022/05/21 10:00:59;;;;;;;;;5.00;5.00;;;;;24.20;52.32;101958.75;5034209;28;45697;-85
2022/05/21 10:03:38;;;;;;;;;7.25;5.25;;;;;24.34;51.75;101976.28;5035506;28;45328;-85
2022/05/21 10:06:17;;;;;;;;;6.60;4.80;;;;;24.35;52.61;101969.84;5052374;28;45550;-86
2022/05/21 10:11:30;;;;;;;;;6.00;6.00;;;;;24.45;52.30;101966.97;5032955;28;45687;-86
2022/05/21 10:14:04;;;;;;;;;5.00;5.00;;;;;24.34;51.53;101935.59;5050770;28;45297;-87
2022/05/21 10:16:51;;;;;;;;;5.00;5.00;;;;;24.17;51.94;101907.56;5085628;27;45657;-86
2022/05/21 10:19:35;;;;;;;;;9.00;7.60;;;;;24.54;51.71;101950.72;5052348;28;45577;-86
2022/05/21 10:22:19;;;;;;;;;5.00;5.00;;;;;24.58;52.14;101946.66;5060358;28;45310;-87
2022/05/21 10:24:57;;;;;;;;;5.60;5.60;;;;;24.59;52.16;101938.34;5052094;28;45274;-86
2022/05/21 10:27:47;;;;;;;;;7.20;6.40;;;;;24.63;51.49;101932.59;5047112;28;45484;-86
2022/05/21 10:30:18;;;;;;;;;7.20;6.00;;;;;24.66;52.02;101943.09;5040062;28;53749;-87
2022/05/21 10:33:06;;;;;;;;;6.00;5.80;;;;;24.69;51.94;101948.19;5036296;28;45497;-87
2022/05/21 10:35:49;;;;;;;;;5.80;5.40;;;;;24.71;52.26;101940.72;5053398;28;45430;-87
2022/05/21 10:38:29;;;;;;;;;8.00;6.20;;;;;24.76;53.35;101932.06;5051346;28;45491;-87
2022/05/21 10:41:23;;;;;;;;;9.00;7.20;;;;;24.46;52.26;101881.91;5054375;28;45754;-86
2022/05/21 10:44:07;;;;;;;;;8.60;8.60;;;;;24.80;52.08;101933.44;5049797;28;45810;-87
2022/05/21 10:46:40;;;;;;;;;9.60;9.20;;;;;24.56;52.04;101895.28;5047928;28;45706;-86
2022/05/21 10:49:19;;;;;;;;;7.20;7.20;;;;;24.85;51.94;101930.19;5044500;28;45565;-86
2022/05/21 10:51:53;;;;;;;;;8.80;6.80;;;;;24.65;51.87;101879.84;5026953;28;47210;-86
2022/05/21 10:54:24;;;;;;;;;7.40;7.40;;;;;24.91;52.78;101929.53;5022751;28;52597;-86
2022/05/21 10:56:56;;;;;;;;;5.20;5.20;;;;;24.21;52.44;101816.75;5052377;28;47255;-88
2022/05/21 10:59:57;;;;;;;;;8.80;7.80;;;;;24.97;52.64;101911.72;5049285;28;45601;-87
2022/05/21 11:03:03;;;;;;;;;11.00;8.00;;;;;25.02;53.42;101910.22;5042512;28;48436;-87
2022/05/21 11:05:59;;;;;;;;;7.60;7.60;;;;;25.07;52.50;101917.81;5063174;28;45332;-88
2022/05/21 11:08:46;;;;;;;;;8.20;7.40;;;;;25.09;52.71;101910.38;5059328;27;45540;-89
2022/05/21 11:11:49;;;;;;;;;9.60;9.20;;;;;25.13;52.24;101916.28;5028385;28;45717;-90
2022/05/21 11:14:18;;;;;;;;;10.00;8.80;;;;;25.14;52.55;101896.28;5061729;28;48431;-89
2022/05/21 11:17:05;;;;;;;;;10.00;8.00;;;;;25.19;53.22;101899.31;5041725;28;47392;-89
2022/05/21 11:19:40;;;;;;;;;12.00;10.00;;;;;25.03;53.27;101868.50;5049014;28;45603;-91
2022/05/21 11:22:10;;;;;;;;;9.80;7.40;;;;;24.52;53.53;101780.03;5063467;27;45582;-91
2022/05/21 11:24:40;;;;;;;;;9.40;9.40;;;;;25.03;53.41;101849.50;5016643;28;48138;-88
2022/05/21 11:27:18;;;;;;;;;8.60;7.80;;;;;24.79;52.86;101805.06;5033720;28;45885;-89
2022/05/21 11:29:49;;;;;;;;;10.60;10.00;;;;;25.38;53.48;101897.25;5017805;28;45368;-89
2022/05/21 11:37:54;;;;;;;;;8.60;8.40;;;;;24.58;53.31;101741.34;5052143;28;47110;-88
2022/05/21 11:41:24;;;;;;;;;8.20;8.20;;;;;25.51;53.08;101876.81;5031832;28;45411;-88
2022/05/21 11:43:56;;;;;;;;;11.80;10.00;;;;;24.95;52.84;101794.34;5051480;28;45869;-88
2022/05/21 11:46:35;;;;;;;;;10.80;8.80;;;;;25.54;53.17;101869.16;5048253;28;47580;-89
2022/05/21 11:49:28;;;;;;;;;9.00;9.00;;;;;25.56;53.08;101860.88;5029141;28;46074;-88
2022/05/21 11:51:59;;;;;;;;;9.60;9.60;;;;;25.13;53.23;101783.28;5058423;27;45584;-88
2022/05/21 11:54:49;;;;;;;;;9.00;8.60;;;;;25.62;53.07;101853.88;5046341;28;45486;-89
2022/05/21 11:57:36;;;;;;;;;10.20;7.80;;;;;25.65;53.06;101848.06;5048764;28;47298;-88